KEVW/EVW METAR and TAF weather

Enter ICAO airport designator
Station Type Date Time Source
KEVW METAR 2020/07/04 07:53 UTC NOAA

KEVW 040753Z AUTO 17006KT 10SM CLR 15/01 A3026 RMK AO2 SLP145 T01500011


Station Type Date Time Source
KEVW Decoded METAR 2020/07/04 07:53 UTC NOAA

EVANSTON-UINTA COUNTY FIELD, WY, United States (KEVW) 41-16N 111-02W 2177M
Jul 04, 2020 - 03:53 AM EDT / 2020.07.04 0753 UTC
Wind: from the S (170 degrees) at 7 MPH (6 KT):0
Visibility: 10 mile(s):0
Sky conditions: clear
Temperature: 59.0 F (15.0 C)
Dew Point: 34.0 F (1.1 C)
Relative Humidity: 38%
Pressure (altimeter): 30.26 in. Hg (1024 hPa)
ob: KEVW 040753Z AUTO 17006KT 10SM CLR 15/01 A3026 RMK AO2 SLP145 T01500011
cycle: 8

Station Type Date Time Source
KEVW TAF 2020/07/04 06:24 UTC NOAA

TAF KEVW 040521Z 0406/0506 17006KT P6SM FEW250
FM041600 23009KT P6SM SKC
FM041800 25014G24KT P6SM FEW150

Example: see airport list